sensor_id;sensor_type;location;lat;lon;timestamp;P1;durP1;ratioP1;P2;durP2;ratioP2
66139;SDS011;52945;51.908;8.364;2022-07-03T00:02:14;1.77;;;1.50;;
66139;SDS011;52945;51.908;8.364;2022-07-03T00:05:14;1.33;;;1.23;;
66139;SDS011;52945;51.908;8.364;2022-07-03T00:08:15;1.80;;;1.40;;
66139;SDS011;52945;51.908;8.364;2022-07-03T00:11:16;1.92;;;1.58;;
66139;SDS011;52945;51.908;8.364;2022-07-03T00:14:17;1.60;;;1.50;;
66139;SDS011;52945;51.908;8.364;2022-07-03T00:17:17;2.25;;;1.33;;
66139;SDS011;52945;51.908;8.364;2022-07-03T00:20:19;1.77;;;1.50;;
66139;SDS011;52945;51.908;8.364;2022-07-03T00:23:19;1.50;;;1.40;;
66139;SDS011;52945;51.908;8.364;2022-07-03T00:26:22;1.48;;;1.38;;
66139;SDS011;52945;51.908;8.364;2022-07-03T00:29:29;2.50;;;1.60;;
66139;SDS011;52945;51.908;8.364;2022-07-03T00:32:31;2.13;;;1.58;;
66139;SDS011;52945;51.908;8.364;2022-07-03T00:35:32;1.63;;;1.50;;
66139;SDS011;52945;51.908;8.364;2022-07-03T00:38:35;2.58;;;1.50;;
66139;SDS011;52945;51.908;8.364;2022-07-03T00:41:36;2.63;;;1.70;;
66139;SDS011;52945;51.908;8.364;2022-07-03T00:44:44;1.95;;;1.63;;
66139;SDS011;52945;51.908;8.364;2022-07-03T00:47:49;1.58;;;1.48;;
66139;SDS011;52945;51.908;8.364;2022-07-03T00:50:50;2.00;;;1.60;;
66139;SDS011;52945;51.908;8.364;2022-07-03T00:53:52;1.58;;;1.48;;
66139;SDS011;52945;51.908;8.364;2022-07-03T00:56:57;3.97;;;1.98;;
66139;SDS011;52945;51.908;8.364;2022-07-03T01:00:00;2.88;;;1.70;;
66139;SDS011;52945;51.908;8.364;2022-07-03T01:03:13;2.00;;;1.60;;
66139;SDS011;52945;51.908;8.364;2022-07-03T01:06:17;1.70;;;1.60;;
66139;SDS011;52945;51.908;8.364;2022-07-03T01:09:17;2.13;;;1.70;;
66139;SDS011;52945;51.908;8.364;2022-07-03T01:12:38;2.05;;;1.60;;
66139;SDS011;52945;51.908;8.364;2022-07-03T01:16:06;3.78;;;1.80;;
66139;SDS011;52945;51.908;8.364;2022-07-03T01:19:41;2.92;;;1.67;;
66139;SDS011;52945;51.908;8.364;2022-07-03T01:22:43;3.60;;;1.73;;
66139;SDS011;52945;51.908;8.364;2022-07-03T01:25:48;3.13;;;1.70;;
66139;SDS011;52945;51.908;8.364;2022-07-03T01:28:50;2.03;;;1.60;;
66139;SDS011;52945;51.908;8.364;2022-07-03T01:31:51;2.85;;;1.63;;
66139;SDS011;52945;51.908;8.364;2022-07-03T01:34:55;2.08;;;1.60;;
66139;SDS011;52945;51.908;8.364;2022-07-03T01:37:57;1.88;;;1.65;;
66139;SDS011;52945;51.908;8.364;2022-07-03T01:41:04;2.08;;;1.60;;
66139;SDS011;52945;51.908;8.364;2022-07-03T01:44:07;1.90;;;1.65;;
66139;SDS011;52945;51.908;8.364;2022-07-03T01:47:11;2.88;;;1.67;;
66139;SDS011;52945;51.908;8.364;2022-07-03T01:50:14;3.47;;;1.70;;
66139;SDS011;52945;51.908;8.364;2022-07-03T01:53:15;2.33;;;1.80;;
66139;SDS011;52945;51.908;8.364;2022-07-03T01:56:17;1.90;;;1.60;;
66139;SDS011;52945;51.908;8.364;2022-07-03T01:59:19;2.08;;;1.65;;
66139;SDS011;52945;51.908;8.364;2022-07-03T02:02:22;2.63;;;1.80;;
66139;SDS011;52945;51.908;8.364;2022-07-03T02:05:31;2.38;;;2.03;;
66139;SDS011;52945;51.908;8.364;2022-07-03T02:11:45;2.00;;;1.65;;
66139;SDS011;52945;51.908;8.364;2022-07-03T02:15:03;3.13;;;1.70;;
66139;SDS011;52945;51.908;8.364;2022-07-03T02:18:10;3.15;;;1.73;;
66139;SDS011;52945;51.908;8.364;2022-07-03T02:21:15;3.08;;;1.73;;
66139;SDS011;52945;51.908;8.364;2022-07-03T02:24:20;2.53;;;1.85;;
66139;SDS011;52945;51.908;8.364;2022-07-03T02:27:25;3.35;;;1.80;;
66139;SDS011;52945;51.908;8.364;2022-07-03T02:30:34;1.70;;;1.58;;
66139;SDS011;52945;51.908;8.364;2022-07-03T02:33:36;4.40;;;1.73;;
66139;SDS011;52945;51.908;8.364;2022-07-03T02:36:40;2.08;;;1.70;;
66139;SDS011;52945;51.908;8.364;2022-07-03T02:39:48;1.63;;;1.50;;
66139;SDS011;52945;51.908;8.364;2022-07-03T02:46:03;3.13;;;2.10;;
66139;SDS011;52945;51.908;8.364;2022-07-03T02:50:25;2.40;;;1.73;;
66139;SDS011;52945;51.908;8.364;2022-07-03T02:53:04;2.03;;;1.83;;
66139;SDS011;52945;51.908;8.364;2022-07-03T02:56:14;2.30;;;1.80;;
66139;SDS011;52945;51.908;8.364;2022-07-03T02:59:22;1.92;;;1.70;;
66139;SDS011;52945;51.908;8.364;2022-07-03T03:02:36;2.25;;;1.75;;
66139;SDS011;52945;51.908;8.364;2022-07-03T03:06:04;3.63;;;2.22;;
66139;SDS011;52945;51.908;8.364;2022-07-03T03:09:18;1.90;;;1.80;;
66139;SDS011;52945;51.908;8.364;2022-07-03T03:12:29;2.60;;;2.10;;
66139;SDS011;52945;51.908;8.364;2022-07-03T03:15:32;3.33;;;1.90;;
66139;SDS011;52945;51.908;8.364;2022-07-03T03:18:34;2.85;;;2.00;;
66139;SDS011;52945;51.908;8.364;2022-07-03T03:21:37;2.05;;;1.80;;
66139;SDS011;52945;51.908;8.364;2022-07-03T03:27:51;8.90;;;1.83;;
66139;SDS011;52945;51.908;8.364;2022-07-03T03:30:52;3.13;;;1.90;;
66139;SDS011;52945;51.908;8.364;2022-07-03T03:36:55;2.38;;;2.08;;
66139;SDS011;52945;51.908;8.364;2022-07-03T03:42:56;2.60;;;1.90;;
66139;SDS011;52945;51.908;8.364;2022-07-03T03:48:58;2.00;;;1.73;;
66139;SDS011;52945;51.908;8.364;2022-07-03T03:54:59;3.13;;;1.67;;
66139;SDS011;52945;51.908;8.364;2022-07-03T04:01:02;2.42;;;2.00;;
66139;SDS011;52945;51.908;8.364;2022-07-03T04:04:04;2.50;;;2.17;;
66139;SDS011;52945;51.908;8.364;2022-07-03T04:10:05;2.03;;;1.80;;
66139;SDS011;52945;51.908;8.364;2022-07-03T04:13:06;3.45;;;1.90;;
66139;SDS011;52945;51.908;8.364;2022-07-03T04:19:07;2.92;;;2.20;;
66139;SDS011;52945;51.908;8.364;2022-07-03T04:25:09;3.90;;;2.25;;
66139;SDS011;52945;51.908;8.364;2022-07-03T04:31:10;2.72;;;2.10;;
66139;SDS011;52945;51.908;8.364;2022-07-03T04:34:11;4.97;;;2.58;;
66139;SDS011;52945;51.908;8.364;2022-07-03T04:37:12;3.17;;;2.13;;
66139;SDS011;52945;51.908;8.364;2022-07-03T04:43:14;3.17;;;2.25;;
66139;SDS011;52945;51.908;8.364;2022-07-03T04:46:16;4.05;;;2.30;;
66139;SDS011;52945;51.908;8.364;2022-07-03T04:52:17;3.72;;;2.28;;
66139;SDS011;52945;51.908;8.364;2022-07-03T04:55:18;3.42;;;2.00;;
66139;SDS011;52945;51.908;8.364;2022-07-03T05:01:19;2.10;;;1.80;;
66139;SDS011;52945;51.908;8.364;2022-07-03T05:07:21;2.42;;;1.98;;
66139;SDS011;52945;51.908;8.364;2022-07-03T05:13:22;2.53;;;1.90;;
66139;SDS011;52945;51.908;8.364;2022-07-03T05:19:23;3.40;;;2.35;;
66139;SDS011;52945;51.908;8.364;2022-07-03T05:25:24;1.88;;;1.70;;
66139;SDS011;52945;51.908;8.364;2022-07-03T05:28:27;2.45;;;2.10;;
66139;SDS011;52945;51.908;8.364;2022-07-03T05:34:28;3.97;;;2.50;;
66139;SDS011;52945;51.908;8.364;2022-07-03T05:40:29;6.18;;;2.08;;
66139;SDS011;52945;51.908;8.364;2022-07-03T05:46:30;3.03;;;2.20;;
66139;SDS011;52945;51.908;8.364;2022-07-03T05:52:31;3.50;;;2.25;;
66139;SDS011;52945;51.908;8.364;2022-07-03T05:58:32;4.50;;;2.30;;
66139;SDS011;52945;51.908;8.364;2022-07-03T06:01:33;3.33;;;2.10;;
66139;SDS011;52945;51.908;8.364;2022-07-03T06:04:34;2.97;;;2.22;;
66139;SDS011;52945;51.908;8.364;2022-07-03T06:07:34;4.05;;;2.40;;
66139;SDS011;52945;51.908;8.364;2022-07-03T06:13:35;2.95;;;2.13;;
66139;SDS011;52945;51.908;8.364;2022-07-03T06:19:36;3.22;;;2.20;;
66139;SDS011;52945;51.908;8.364;2022-07-03T06:25:38;3.30;;;2.30;;
66139;SDS011;52945;51.908;8.364;2022-07-03T06:28:38;3.90;;;2.00;;
66139;SDS011;52945;51.908;8.364;2022-07-03T06:31:39;4.82;;;2.75;;
66139;SDS011;52945;51.908;8.364;2022-07-03T06:34:39;3.83;;;2.15;;
66139;SDS011;52945;51.908;8.364;2022-07-03T06:37:42;3.22;;;2.20;;
66139;SDS011;52945;51.908;8.364;2022-07-03T06:40:43;3.17;;;2.53;;
66139;SDS011;52945;51.908;8.364;2022-07-03T06:43:44;3.75;;;1.95;;
66139;SDS011;52945;51.908;8.364;2022-07-03T06:46:44;4.75;;;2.13;;
66139;SDS011;52945;51.908;8.364;2022-07-03T06:49:45;3.00;;;2.40;;
66139;SDS011;52945;51.908;8.364;2022-07-03T06:52:45;4.28;;;2.47;;
66139;SDS011;52945;51.908;8.364;2022-07-03T06:55:46;3.33;;;2.25;;
66139;SDS011;52945;51.908;8.364;2022-07-03T06:58:47;4.30;;;2.63;;
66139;SDS011;52945;51.908;8.364;2022-07-03T07:01:48;3.35;;;2.30;;
66139;SDS011;52945;51.908;8.364;2022-07-03T07:04:48;4.00;;;2.38;;
66139;SDS011;52945;51.908;8.364;2022-07-03T07:07:49;3.13;;;1.90;;
66139;SDS011;52945;51.908;8.364;2022-07-03T07:10:50;2.90;;;2.08;;
66139;SDS011;52945;51.908;8.364;2022-07-03T07:13:50;4.38;;;2.05;;
66139;SDS011;52945;51.908;8.364;2022-07-03T07:16:51;1.90;;;1.60;;
66139;SDS011;52945;51.908;8.364;2022-07-03T07:19:52;3.25;;;1.88;;
66139;SDS011;52945;51.908;8.364;2022-07-03T07:22:56;2.28;;;1.70;;
66139;SDS011;52945;51.908;8.364;2022-07-03T07:25:56;3.05;;;2.20;;
66139;SDS011;52945;51.908;8.364;2022-07-03T07:28:57;2.63;;;2.10;;
66139;SDS011;52945;51.908;8.364;2022-07-03T07:31:57;2.33;;;1.90;;
66139;SDS011;52945;51.908;8.364;2022-07-03T07:34:58;3.75;;;2.05;;
66139;SDS011;52945;51.908;8.364;2022-07-03T07:37:59;3.40;;;2.20;;
66139;SDS011;52945;51.908;8.364;2022-07-03T07:40:59;3.28;;;2.47;;
66139;SDS011;52945;51.908;8.364;2022-07-03T07:44:00;3.22;;;2.50;;
66139;SDS011;52945;51.908;8.364;2022-07-03T07:47:01;3.55;;;2.13;;
66139;SDS011;52945;51.908;8.364;2022-07-03T07:50:02;2.53;;;1.90;;
66139;SDS011;52945;51.908;8.364;2022-07-03T07:53:04;2.85;;;1.80;;
66139;SDS011;52945;51.908;8.364;2022-07-03T07:56:04;2.75;;;2.00;;
66139;SDS011;52945;51.908;8.364;2022-07-03T07:59:05;2.15;;;1.77;;
66139;SDS011;52945;51.908;8.364;2022-07-03T08:02:05;2.15;;;1.70;;
66139;SDS011;52945;51.908;8.364;2022-07-03T08:05:24;2.58;;;1.70;;
66139;SDS011;52945;51.908;8.364;2022-07-03T08:08:37;2.03;;;1.77;;
66139;SDS011;52945;51.908;8.364;2022-07-03T08:11:37;2.20;;;1.60;;
66139;SDS011;52945;51.908;8.364;2022-07-03T08:14:38;3.70;;;1.73;;
66139;SDS011;52945;51.908;8.364;2022-07-03T08:17:39;3.72;;;1.65;;
66139;SDS011;52945;51.908;8.364;2022-07-03T08:20:39;1.70;;;1.60;;
66139;SDS011;52945;51.908;8.364;2022-07-03T08:23:40;1.60;;;1.45;;
66139;SDS011;52945;51.908;8.364;2022-07-03T08:26:41;2.20;;;1.50;;
66139;SDS011;52945;51.908;8.364;2022-07-03T08:29:41;2.58;;;1.45;;
66139;SDS011;52945;51.908;8.364;2022-07-03T08:32:42;2.22;;;1.40;;
66139;SDS011;52945;51.908;8.364;2022-07-03T08:35:44;2.97;;;1.20;;
66139;SDS011;52945;51.908;8.364;2022-07-03T08:38:45;1.17;;;0.95;;
66139;SDS011;52945;51.908;8.364;2022-07-03T08:41:45;2.05;;;1.35;;
66139;SDS011;52945;51.908;8.364;2022-07-03T08:44:49;1.75;;;1.30;;
66139;SDS011;52945;51.908;8.364;2022-07-03T08:47:53;2.15;;;1.10;;
66139;SDS011;52945;51.908;8.364;2022-07-03T08:50:54;1.33;;;1.00;;
66139;SDS011;52945;51.908;8.364;2022-07-03T08:53:56;1.42;;;1.05;;
66139;SDS011;52945;51.908;8.364;2022-07-03T08:57:01;1.92;;;0.93;;
66139;SDS011;52945;51.908;8.364;2022-07-03T09:00:04;1.02;;;0.90;;
66139;SDS011;52945;51.908;8.364;2022-07-03T09:03:10;1.20;;;1.10;;
66139;SDS011;52945;51.908;8.364;2022-07-03T09:06:12;1.20;;;1.10;;
66139;SDS011;52945;51.908;8.364;2022-07-03T09:09:13;3.92;;;1.20;;
66139;SDS011;52945;51.908;8.364;2022-07-03T09:12:14;2.22;;;1.02;;
66139;SDS011;52945;51.908;8.364;2022-07-03T09:15:15;1.10;;;1.00;;
66139;SDS011;52945;51.908;8.364;2022-07-03T09:18:16;1.80;;;1.00;;
66139;SDS011;52945;51.908;8.364;2022-07-03T09:21:16;2.42;;;1.08;;
66139;SDS011;52945;51.908;8.364;2022-07-03T09:24:17;1.88;;;1.00;;
66139;SDS011;52945;51.908;8.364;2022-07-03T09:27:19;0.82;;;0.80;;
66139;SDS011;52945;51.908;8.364;2022-07-03T09:30:21;1.75;;;0.73;;
66139;SDS011;52945;51.908;8.364;2022-07-03T09:33:22;2.35;;;0.80;;
66139;SDS011;52945;51.908;8.364;2022-07-03T09:36:42;1.90;;;0.80;;
66139;SDS011;52945;51.908;8.364;2022-07-03T09:39:44;1.98;;;0.90;;
66139;SDS011;52945;51.908;8.364;2022-07-03T09:43:07;1.08;;;0.93;;
66139;SDS011;52945;51.908;8.364;2022-07-03T09:46:08;0.77;;;0.77;;
66139;SDS011;52945;51.908;8.364;2022-07-03T09:49:09;1.15;;;0.90;;
66139;SDS011;52945;51.908;8.364;2022-07-03T09:52:24;2.05;;;0.82;;
66139;SDS011;52945;51.908;8.364;2022-07-03T09:55:31;2.72;;;1.10;;
66139;SDS011;52945;51.908;8.364;2022-07-03T09:58:33;2.90;;;1.02;;
66139;SDS011;52945;51.908;8.364;2022-07-03T10:01:37;1.95;;;0.80;;
66139;SDS011;52945;51.908;8.364;2022-07-03T10:04:40;1.10;;;0.80;;
66139;SDS011;52945;51.908;8.364;2022-07-03T10:11:00;1.50;;;0.75;;
66139;SDS011;52945;51.908;8.364;2022-07-03T10:14:01;1.67;;;0.95;;
66139;SDS011;52945;51.908;8.364;2022-07-03T10:17:02;1.27;;;1.00;;
66139;SDS011;52945;51.908;8.364;2022-07-03T10:20:03;0.98;;;0.77;;
66139;SDS011;52945;51.908;8.364;2022-07-03T10:23:04;2.80;;;0.90;;
66139;SDS011;52945;51.908;8.364;2022-07-03T10:26:05;1.00;;;0.90;;
66139;SDS011;52945;51.908;8.364;2022-07-03T10:29:08;0.98;;;0.90;;
66139;SDS011;52945;51.908;8.364;2022-07-03T10:32:10;1.42;;;0.80;;
66139;SDS011;52945;51.908;8.364;2022-07-03T10:35:13;1.00;;;0.80;;
66139;SDS011;52945;51.908;8.364;2022-07-03T10:41:41;1.08;;;0.80;;
66139;SDS011;52945;51.908;8.364;2022-07-03T10:45:05;0.80;;;0.60;;
66139;SDS011;52945;51.908;8.364;2022-07-03T10:48:07;1.67;;;0.90;;
66139;SDS011;52945;51.908;8.364;2022-07-03T10:51:11;1.25;;;0.68;;
66139;SDS011;52945;51.908;8.364;2022-07-03T10:54:16;0.60;;;0.60;;
66139;SDS011;52945;51.908;8.364;2022-07-03T10:57:17;0.80;;;0.80;;
66139;SDS011;52945;51.908;8.364;2022-07-03T11:00:19;0.80;;;0.70;;
66139;SDS011;52945;51.908;8.364;2022-07-03T11:13:12;1.58;;;0.85;;
66139;SDS011;52945;51.908;8.364;2022-07-03T11:16:22;0.70;;;0.70;;
66139;SDS011;52945;51.908;8.364;2022-07-03T11:19:26;0.98;;;0.93;;
66139;SDS011;52945;51.908;8.364;2022-07-03T11:22:32;0.85;;;0.80;;
66139;SDS011;52945;51.908;8.364;2022-07-03T11:25:47;0.82;;;0.70;;
66139;SDS011;52945;51.908;8.364;2022-07-03T11:28:52;1.83;;;0.82;;
66139;SDS011;52945;51.908;8.364;2022-07-03T11:31:53;0.98;;;0.73;;
66139;SDS011;52945;51.908;8.364;2022-07-03T11:34:54;1.15;;;0.70;;
66139;SDS011;52945;51.908;8.364;2022-07-03T11:37:54;0.77;;;0.70;;
66139;SDS011;52945;51.908;8.364;2022-07-03T11:40:56;0.65;;;0.65;;
66139;SDS011;52945;51.908;8.364;2022-07-03T11:44:00;1.25;;;0.90;;
66139;SDS011;52945;51.908;8.364;2022-07-03T11:47:02;1.10;;;0.90;;
66139;SDS011;52945;51.908;8.364;2022-07-03T11:50:04;0.73;;;0.73;;
66139;SDS011;52945;51.908;8.364;2022-07-03T11:53:15;1.15;;;0.75;;
66139;SDS011;52945;51.908;8.364;2022-07-03T11:56:18;1.00;;;0.90;;
66139;SDS011;52945;51.908;8.364;2022-07-03T11:59:19;2.47;;;0.98;;
66139;SDS011;52945;51.908;8.364;2022-07-03T12:02:20;0.90;;;0.90;;
66139;SDS011;52945;51.908;8.364;2022-07-03T12:05:20;1.02;;;0.95;;
66139;SDS011;52945;51.908;8.364;2022-07-03T12:08:25;2.50;;;1.23;;
66139;SDS011;52945;51.908;8.364;2022-07-03T12:11:27;1.52;;;1.25;;
66139;SDS011;52945;51.908;8.364;2022-07-03T12:14:44;1.73;;;0.98;;
66139;SDS011;52945;51.908;8.364;2022-07-03T12:17:48;0.73;;;0.73;;
66139;SDS011;52945;51.908;8.364;2022-07-03T12:20:49;1.92;;;0.80;;
66139;SDS011;52945;51.908;8.364;2022-07-03T12:23:51;1.50;;;0.98;;
66139;SDS011;52945;51.908;8.364;2022-07-03T12:26:53;1.50;;;1.10;;
66139;SDS011;52945;51.908;8.364;2022-07-03T12:29:53;1.80;;;1.00;;
66139;SDS011;52945;51.908;8.364;2022-07-03T12:32:54;1.88;;;0.95;;
66139;SDS011;52945;51.908;8.364;2022-07-03T12:36:06;0.98;;;0.93;;
66139;SDS011;52945;51.908;8.364;2022-07-03T12:39:08;1.75;;;1.08;;
66139;SDS011;52945;51.908;8.364;2022-07-03T12:42:19;1.23;;;1.08;;
66139;SDS011;52945;51.908;8.364;2022-07-03T12:45:25;1.60;;;1.23;;
66139;SDS011;52945;51.908;8.364;2022-07-03T12:48:27;2.95;;;1.30;;
66139;SDS011;52945;51.908;8.364;2022-07-03T12:54:43;1.92;;;1.30;;
66139;SDS011;52945;51.908;8.364;2022-07-03T12:57:44;1.20;;;1.10;;
66139;SDS011;52945;51.908;8.364;2022-07-03T13:01:03;2.45;;;1.20;;
66139;SDS011;52945;51.908;8.364;2022-07-03T13:04:04;1.60;;;1.50;;
66139;SDS011;52945;51.908;8.364;2022-07-03T13:07:06;5.40;;;1.40;;
66139;SDS011;52945;51.908;8.364;2022-07-03T13:10:08;3.13;;;1.50;;
66139;SDS011;52945;51.908;8.364;2022-07-03T13:13:09;2.67;;;1.30;;
66139;SDS011;52945;51.908;8.364;2022-07-03T13:16:23;1.42;;;1.20;;
66139;SDS011;52945;51.908;8.364;2022-07-03T13:19:25;2.47;;;1.20;;
66139;SDS011;52945;51.908;8.364;2022-07-03T13:22:27;4.97;;;1.77;;
66139;SDS011;52945;51.908;8.364;2022-07-03T13:25:28;3.25;;;1.40;;
66139;SDS011;52945;51.908;8.364;2022-07-03T13:28:29;4.28;;;1.40;;
66139;SDS011;52945;51.908;8.364;2022-07-03T13:31:30;2.65;;;1.30;;
66139;SDS011;52945;51.908;8.364;2022-07-03T13:34:31;1.58;;;1.30;;
66139;SDS011;52945;51.908;8.364;2022-07-03T13:37:31;1.55;;;1.35;;
66139;SDS011;52945;51.908;8.364;2022-07-03T13:40:32;1.67;;;1.30;;
66139;SDS011;52945;51.908;8.364;2022-07-03T13:43:34;1.52;;;1.35;;
66139;SDS011;52945;51.908;8.364;2022-07-03T13:46:35;1.83;;;1.25;;
66139;SDS011;52945;51.908;8.364;2022-07-03T13:49:35;1.42;;;1.33;;
66139;SDS011;52945;51.908;8.364;2022-07-03T13:52:36;1.90;;;1.17;;
66139;SDS011;52945;51.908;8.364;2022-07-03T13:55:36;2.70;;;1.30;;
66139;SDS011;52945;51.908;8.364;2022-07-03T13:58:37;2.17;;;1.30;;
66139;SDS011;52945;51.908;8.364;2022-07-03T14:01:38;2.92;;;1.33;;
66139;SDS011;52945;51.908;8.364;2022-07-03T14:04:38;1.58;;;1.23;;
66139;SDS011;52945;51.908;8.364;2022-07-03T14:07:39;1.77;;;1.30;;
66139;SDS011;52945;51.908;8.364;2022-07-03T14:10:39;1.77;;;1.38;;
66139;SDS011;52945;51.908;8.364;2022-07-03T14:13:40;1.60;;;1.30;;
66139;SDS011;52945;51.908;8.364;2022-07-03T14:16:41;1.45;;;1.30;;
66139;SDS011;52945;51.908;8.364;2022-07-03T14:19:41;4.43;;;1.40;;
66139;SDS011;52945;51.908;8.364;2022-07-03T14:22:42;3.20;;;1.40;;
66139;SDS011;52945;51.908;8.364;2022-07-03T14:25:44;3.28;;;1.30;;
66139;SDS011;52945;51.908;8.364;2022-07-03T14:28:44;2.25;;;1.20;;
66139;SDS011;52945;51.908;8.364;2022-07-03T14:32:04;1.40;;;1.30;;
66139;SDS011;52945;51.908;8.364;2022-07-03T14:35:23;2.50;;;1.92;;
66139;SDS011;52945;51.908;8.364;2022-07-03T14:38:24;1.60;;;1.30;;
66139;SDS011;52945;51.908;8.364;2022-07-03T14:41:24;1.98;;;1.30;;
66139;SDS011;52945;51.908;8.364;2022-07-03T14:44:25;1.80;;;1.35;;
66139;SDS011;52945;51.908;8.364;2022-07-03T14:47:26;1.85;;;1.38;;
66139;SDS011;52945;51.908;8.364;2022-07-03T14:50:26;2.92;;;1.30;;
66139;SDS011;52945;51.908;8.364;2022-07-03T14:53:27;3.40;;;1.38;;
66139;SDS011;52945;51.908;8.364;2022-07-03T14:56:28;1.45;;;1.23;;
66139;SDS011;52945;51.908;8.364;2022-07-03T15:06:09;2.05;;;1.42;;
66139;SDS011;52945;51.908;8.364;2022-07-03T15:09:13;1.77;;;1.40;;
66139;SDS011;52945;51.908;8.364;2022-07-03T15:12:21;1.30;;;1.10;;
66139;SDS011;52945;51.908;8.364;2022-07-03T15:15:29;1.65;;;1.00;;
66139;SDS011;52945;51.908;8.364;2022-07-03T15:18:31;1.20;;;1.10;;
66139;SDS011;52945;51.908;8.364;2022-07-03T15:21:33;4.25;;;1.40;;
66139;SDS011;52945;51.908;8.364;2022-07-03T15:24:36;1.08;;;0.98;;
66139;SDS011;52945;51.908;8.364;2022-07-03T15:27:37;2.25;;;1.30;;
66139;SDS011;52945;51.908;8.364;2022-07-03T15:30:38;2.65;;;1.40;;
66139;SDS011;52945;51.908;8.364;2022-07-03T15:33:47;1.38;;;1.27;;
66139;SDS011;52945;51.908;8.364;2022-07-03T15:36:50;1.38;;;1.27;;
66139;SDS011;52945;51.908;8.364;2022-07-03T15:49:58;1.90;;;1.15;;
66139;SDS011;52945;51.908;8.364;2022-07-03T15:53:00;1.13;;;1.00;;
66139;SDS011;52945;51.908;8.364;2022-07-03T15:56:05;1.15;;;1.02;;
66139;SDS011;52945;51.908;8.364;2022-07-03T15:59:13;1.33;;;0.82;;
66139;SDS011;52945;51.908;8.364;2022-07-03T16:02:19;1.98;;;1.00;;
66139;SDS011;52945;51.908;8.364;2022-07-03T16:05:26;2.15;;;1.08;;
66139;SDS011;52945;51.908;8.364;2022-07-03T16:08:31;1.27;;;1.10;;
66139;SDS011;52945;51.908;8.364;2022-07-03T16:11:33;2.38;;;1.20;;
66139;SDS011;52945;51.908;8.364;2022-07-03T16:14:34;1.20;;;1.10;;
66139;SDS011;52945;51.908;8.364;2022-07-03T16:17:35;3.88;;;1.10;;
66139;SDS011;52945;51.908;8.364;2022-07-03T16:20:36;0.98;;;0.90;;
66139;SDS011;52945;51.908;8.364;2022-07-03T16:23:37;2.42;;;0.98;;
66139;SDS011;52945;51.908;8.364;2022-07-03T16:26:39;1.95;;;1.10;;
66139;SDS011;52945;51.908;8.364;2022-07-03T16:29:39;1.88;;;1.00;;
66139;SDS011;52945;51.908;8.364;2022-07-03T16:32:41;2.20;;;0.90;;
66139;SDS011;52945;51.908;8.364;2022-07-03T16:35:43;1.02;;;0.90;;
66139;SDS011;52945;51.908;8.364;2022-07-03T16:38:51;2.10;;;1.00;;
66139;SDS011;52945;51.908;8.364;2022-07-03T16:41:56;2.55;;;1.00;;
66139;SDS011;52945;51.908;8.364;2022-07-03T16:45:02;2.35;;;0.80;;
66139;SDS011;52945;51.908;8.364;2022-07-03T16:48:11;2.83;;;0.85;;
66139;SDS011;52945;51.908;8.364;2022-07-03T16:51:14;1.85;;;1.00;;
66139;SDS011;52945;51.908;8.364;2022-07-03T16:54:17;1.17;;;1.00;;
66139;SDS011;52945;51.908;8.364;2022-07-03T16:57:19;1.27;;;0.80;;
66139;SDS011;52945;51.908;8.364;2022-07-03T17:00:22;1.77;;;0.85;;
66139;SDS011;52945;51.908;8.364;2022-07-03T17:03:28;0.85;;;0.85;;
66139;SDS011;52945;51.908;8.364;2022-07-03T17:06:31;1.98;;;0.93;;
66139;SDS011;52945;51.908;8.364;2022-07-03T17:09:35;1.98;;;0.85;;
66139;SDS011;52945;51.908;8.364;2022-07-03T17:12:38;2.08;;;0.80;;
66139;SDS011;52945;51.908;8.364;2022-07-03T17:15:42;1.27;;;0.80;;
66139;SDS011;52945;51.908;8.364;2022-07-03T17:18:50;2.10;;;0.80;;
66139;SDS011;52945;51.908;8.364;2022-07-03T17:21:52;0.88;;;0.88;;
66139;SDS011;52945;51.908;8.364;2022-07-03T17:24:55;0.90;;;0.90;;
66139;SDS011;52945;51.908;8.364;2022-07-03T17:27:57;1.38;;;0.95;;
66139;SDS011;52945;51.908;8.364;2022-07-03T17:31:02;1.00;;;0.90;;
66139;SDS011;52945;51.908;8.364;2022-07-03T17:34:03;2.70;;;1.00;;
66139;SDS011;52945;51.908;8.364;2022-07-03T17:37:08;0.98;;;0.73;;
66139;SDS011;52945;51.908;8.364;2022-07-03T17:40:11;1.35;;;1.23;;
66139;SDS011;52945;51.908;8.364;2022-07-03T17:43:14;1.38;;;1.00;;
66139;SDS011;52945;51.908;8.364;2022-07-03T17:46:15;2.85;;;1.15;;
66139;SDS011;52945;51.908;8.364;2022-07-03T17:49:19;1.20;;;1.10;;
66139;SDS011;52945;51.908;8.364;2022-07-03T17:52:20;2.55;;;1.40;;
66139;SDS011;52945;51.908;8.364;2022-07-03T17:55:25;2.50;;;1.05;;
66139;SDS011;52945;51.908;8.364;2022-07-03T17:58:28;2.72;;;1.17;;
66139;SDS011;52945;51.908;8.364;2022-07-03T18:01:29;1.13;;;1.02;;
66139;SDS011;52945;51.908;8.364;2022-07-03T18:04:33;1.33;;;1.13;;
66139;SDS011;52945;51.908;8.364;2022-07-03T18:07:41;1.02;;;1.00;;
66139;SDS011;52945;51.908;8.364;2022-07-03T18:14:39;1.02;;;1.00;;
66139;SDS011;52945;51.908;8.364;2022-07-03T18:17:43;1.42;;;1.00;;
66139;SDS011;52945;51.908;8.364;2022-07-03T18:20:49;1.20;;;1.10;;
66139;SDS011;52945;51.908;8.364;2022-07-03T18:23:53;1.80;;;1.08;;
66139;SDS011;52945;51.908;8.364;2022-07-03T18:26:57;2.70;;;1.08;;
66139;SDS011;52945;51.908;8.364;2022-07-03T18:30:06;1.27;;;0.95;;
66139;SDS011;52945;51.908;8.364;2022-07-03T18:33:08;1.13;;;0.98;;
66139;SDS011;52945;51.908;8.364;2022-07-03T18:36:10;1.02;;;0.93;;
66139;SDS011;52945;51.908;8.364;2022-07-03T18:39:14;3.65;;;1.10;;
66139;SDS011;52945;51.908;8.364;2022-07-03T18:42:17;1.70;;;0.95;;
66139;SDS011;52945;51.908;8.364;2022-07-03T18:45:19;2.30;;;1.00;;
66139;SDS011;52945;51.908;8.364;2022-07-03T18:48:20;2.63;;;1.10;;
66139;SDS011;52945;51.908;8.364;2022-07-03T19:01:44;1.63;;;1.08;;
66139;SDS011;52945;51.908;8.364;2022-07-03T19:04:51;0.90;;;0.82;;
66139;SDS011;52945;51.908;8.364;2022-07-03T19:08:02;0.85;;;0.80;;
66139;SDS011;52945;51.908;8.364;2022-07-03T19:11:05;1.58;;;0.80;;
66139;SDS011;52945;51.908;8.364;2022-07-03T19:14:09;1.33;;;1.00;;
66139;SDS011;52945;51.908;8.364;2022-07-03T19:17:12;0.90;;;0.90;;
66139;SDS011;52945;51.908;8.364;2022-07-03T19:20:14;1.00;;;0.80;;
66139;SDS011;52945;51.908;8.364;2022-07-03T19:23:16;1.80;;;1.10;;
66139;SDS011;52945;51.908;8.364;2022-07-03T19:26:17;0.85;;;0.85;;
66139;SDS011;52945;51.908;8.364;2022-07-03T19:29:17;1.45;;;0.90;;
66139;SDS011;52945;51.908;8.364;2022-07-03T19:32:18;1.38;;;0.90;;
66139;SDS011;52945;51.908;8.364;2022-07-03T19:35:19;4.20;;;0.98;;
66139;SDS011;52945;51.908;8.364;2022-07-03T19:38:20;1.38;;;1.27;;
66139;SDS011;52945;51.908;8.364;2022-07-03T19:41:22;3.33;;;1.20;;
66139;SDS011;52945;51.908;8.364;2022-07-03T19:44:23;2.35;;;1.13;;
66139;SDS011;52945;51.908;8.364;2022-07-03T19:47:23;1.23;;;1.00;;
66139;SDS011;52945;51.908;8.364;2022-07-03T19:50:24;1.67;;;0.95;;
66139;SDS011;52945;51.908;8.364;2022-07-03T19:53:25;1.17;;;1.00;;
66139;SDS011;52945;51.908;8.364;2022-07-03T19:56:25;2.47;;;1.52;;
66139;SDS011;52945;51.908;8.364;2022-07-03T19:59:26;1.35;;;1.00;;
66139;SDS011;52945;51.908;8.364;2022-07-03T20:02:26;2.25;;;1.33;;
66139;SDS011;52945;51.908;8.364;2022-07-03T20:05:27;4.10;;;1.33;;
66139;SDS011;52945;51.908;8.364;2022-07-03T20:08:30;2.47;;;1.45;;
66139;SDS011;52945;51.908;8.364;2022-07-03T20:11:31;2.00;;;1.25;;
66139;SDS011;52945;51.908;8.364;2022-07-03T20:14:31;1.33;;;1.20;;
66139;SDS011;52945;51.908;8.364;2022-07-03T20:17:34;0.95;;;0.95;;
66139;SDS011;52945;51.908;8.364;2022-07-03T20:20:37;1.33;;;1.10;;
66139;SDS011;52945;51.908;8.364;2022-07-03T20:23:38;1.92;;;1.13;;
66139;SDS011;52945;51.908;8.364;2022-07-03T20:27:01;1.75;;;1.10;;
66139;SDS011;52945;51.908;8.364;2022-07-03T20:30:04;1.67;;;1.27;;
66139;SDS011;52945;51.908;8.364;2022-07-03T20:33:05;1.20;;;1.10;;
66139;SDS011;52945;51.908;8.364;2022-07-03T20:36:05;1.52;;;0.90;;
66139;SDS011;52945;51.908;8.364;2022-07-03T20:39:06;1.10;;;1.00;;